sensor_id;sensor_type;location;lat;lon;timestamp;pressure;altitude;pressure_sealevel;temperature;humidity
53270;BME280;39159;45.634;9.420;2023-05-20T00:00:49;98994.84;;;12.21;100.00
53270;BME280;39159;45.634;9.420;2023-05-20T00:03:15;98983.91;;;12.21;100.00
53270;BME280;39159;45.634;9.420;2023-05-20T00:05:41;98981.66;;;12.23;100.00
53270;BME280;39159;45.634;9.420;2023-05-20T00:08:07;98989.69;;;12.20;100.00
53270;BME280;39159;45.634;9.420;2023-05-20T00:10:34;98982.28;;;12.20;100.00
53270;BME280;39159;45.634;9.420;2023-05-20T00:13:00;98979.22;;;12.22;100.00
53270;BME280;39159;45.634;9.420;2023-05-20T00:15:26;98985.50;;;12.22;100.00
53270;BME280;39159;45.634;9.420;2023-05-20T00:17:51;98986.63;;;12.21;100.00
53270;BME280;39159;45.634;9.420;2023-05-20T00:20:17;98973.59;;;12.18;100.00
53270;BME280;39159;45.634;9.420;2023-05-20T00:22:42;98975.50;;;12.18;100.00
53270;BME280;39159;45.634;9.420;2023-05-20T00:25:08;98968.94;;;12.19;100.00
53270;BME280;39159;45.634;9.420;2023-05-20T00:27:34;98970.41;;;12.25;100.00
53270;BME280;39159;45.634;9.420;2023-05-20T00:29:59;98971.34;;;12.29;100.00
53270;BME280;39159;45.634;9.420;2023-05-20T00:32:25;98974.56;;;12.31;100.00
53270;BME280;39159;45.634;9.420;2023-05-20T00:34:57;98972.66;;;12.32;100.00
53270;BME280;39159;45.634;9.420;2023-05-20T00:37:23;98972.31;;;12.24;100.00
53270;BME280;39159;45.634;9.420;2023-05-20T00:39:49;98959.28;;;12.21;100.00
53270;BME280;39159;45.634;9.420;2023-05-20T00:42:24;98963.59;;;12.22;100.00
53270;BME280;39159;45.634;9.420;2023-05-20T00:44:51;98968.78;;;12.24;100.00
53270;BME280;39159;45.634;9.420;2023-05-20T00:47:17;98967.47;;;12.21;100.00
53270;BME280;39159;45.634;9.420;2023-05-20T00:49:44;98963.28;;;12.24;100.00
53270;BME280;39159;45.634;9.420;2023-05-20T00:52:11;98955.88;;;12.24;100.00
53270;BME280;39159;45.634;9.420;2023-05-20T00:54:39;98959.91;;;12.27;100.00
53270;BME280;39159;45.634;9.420;2023-05-20T00:57:06;98966.84;;;12.24;100.00
53270;BME280;39159;45.634;9.420;2023-05-20T00:59:33;98960.88;;;12.22;100.00
53270;BME280;39159;45.634;9.420;2023-05-20T01:01:59;98952.84;;;12.26;100.00
53270;BME280;39159;45.634;9.420;2023-05-20T01:04:25;98956.38;;;12.27;100.00
53270;BME280;39159;45.634;9.420;2023-05-20T01:06:51;98961.06;;;12.26;100.00
53270;BME280;39159;45.634;9.420;2023-05-20T01:09:17;98950.41;;;12.24;100.00
53270;BME280;39159;45.634;9.420;2023-05-20T01:12:02;98957.34;;;12.22;100.00
53270;BME280;39159;45.634;9.420;2023-05-20T01:14:35;98957.03;;;12.23;100.00
53270;BME280;39159;45.634;9.420;2023-05-20T01:17:02;98949.94;;;12.22;100.00
53270;BME280;39159;45.634;9.420;2023-05-20T01:19:44;98956.22;;;12.23;100.00
53270;BME280;39159;45.634;9.420;2023-05-20T01:22:11;98955.09;;;12.24;100.00
53270;BME280;39159;45.634;9.420;2023-05-20T01:24:45;98946.22;;;12.27;100.00
53270;BME280;39159;45.634;9.420;2023-05-20T01:27:13;98946.56;;;12.26;100.00
53270;BME280;39159;45.634;9.420;2023-05-20T01:29:40;98945.44;;;12.27;100.00
53270;BME280;39159;45.634;9.420;2023-05-20T01:32:10;98938.66;;;12.24;100.00
53270;BME280;39159;45.634;9.420;2023-05-20T01:34:37;98937.88;;;12.23;100.00
53270;BME280;39159;45.634;9.420;2023-05-20T01:37:04;98930.78;;;12.22;100.00
53270;BME280;39159;45.634;9.420;2023-05-20T01:39:33;98936.91;;;12.19;100.00
53270;BME280;39159;45.634;9.420;2023-05-20T01:42:02;98936.09;;;12.19;100.00
53270;BME280;39159;45.634;9.420;2023-05-20T01:44:28;98939.13;;;12.17;100.00
53270;BME280;39159;45.634;9.420;2023-05-20T01:46:54;98932.06;;;12.16;100.00
53270;BME280;39159;45.634;9.420;2023-05-20T01:49:19;98926.59;;;12.16;100.00
53270;BME280;39159;45.634;9.420;2023-05-20T01:51:45;98932.06;;;12.16;100.00
53270;BME280;39159;45.634;9.420;2023-05-20T01:54:10;98927.09;;;12.18;100.00
53270;BME280;39159;45.634;9.420;2023-05-20T01:56:36;98929.81;;;12.18;100.00
53270;BME280;39159;45.634;9.420;2023-05-20T01:59:01;98927.88;;;12.19;100.00
53270;BME280;39159;45.634;9.420;2023-05-20T02:01:26;98919.69;;;12.19;100.00
53270;BME280;39159;45.634;9.420;2023-05-20T02:03:52;98918.06;;;12.18;100.00
53270;BME280;39159;45.634;9.420;2023-05-20T02:06:17;98908.56;;;12.15;100.00
53270;BME280;39159;45.634;9.420;2023-05-20T02:08:43;98909.84;;;12.18;100.00
53270;BME280;39159;45.634;9.420;2023-05-20T02:11:08;98907.44;;;12.16;100.00
53270;BME280;39159;45.634;9.420;2023-05-20T02:13:34;98910.19;;;12.16;100.00
53270;BME280;39159;45.634;9.420;2023-05-20T02:15:59;98907.44;;;12.16;100.00
53270;BME280;39159;45.634;9.420;2023-05-20T02:18:25;98905.50;;;12.17;100.00
53270;BME280;39159;45.634;9.420;2023-05-20T02:20:51;98904.38;;;12.18;100.00
53270;BME280;39159;45.634;9.420;2023-05-20T02:23:17;98904.06;;;12.19;100.00
53270;BME280;39159;45.634;9.420;2023-05-20T02:25:42;98902.47;;;12.18;100.00
53270;BME280;39159;45.634;9.420;2023-05-20T02:28:08;98898.91;;;12.18;100.00
53270;BME280;39159;45.634;9.420;2023-05-20T02:30:38;98898.59;;;12.19;100.00
53270;BME280;39159;45.634;9.420;2023-05-20T02:33:04;98899.88;;;12.22;100.00
53270;BME280;39159;45.634;9.420;2023-05-20T02:35:31;98892.81;;;12.21;100.00
53270;BME280;39159;45.634;9.420;2023-05-20T02:37:56;98898.59;;;12.19;100.00
53270;BME280;39159;45.634;9.420;2023-05-20T02:40:22;98896.34;;;12.21;100.00
53270;BME280;39159;45.634;9.420;2023-05-20T02:42:47;98888.44;;;12.20;100.00
53270;BME280;39159;45.634;9.420;2023-05-20T02:45:13;98889.59;;;12.19;100.00
53270;BME280;39159;45.634;9.420;2023-05-20T02:47:38;98889.25;;;12.20;100.00
53270;BME280;39159;45.634;9.420;2023-05-20T02:50:04;98882.97;;;12.20;100.00
53270;BME280;39159;45.634;9.420;2023-05-20T02:52:31;98884.44;;;12.17;100.00
53270;BME280;39159;45.634;9.420;2023-05-20T02:54:57;98883.63;;;12.17;100.00
53270;BME280;39159;45.634;9.420;2023-05-20T02:57:22;98874.63;;;12.16;100.00
53270;BME280;39159;45.634;9.420;2023-05-20T02:59:48;98883.31;;;12.18;100.00
53270;BME280;39159;45.634;9.420;2023-05-20T03:02:13;98875.41;;;12.17;100.00
53270;BME280;39159;45.634;9.420;2023-05-20T03:04:39;98871.41;;;12.14;100.00
53270;BME280;39159;45.634;9.420;2023-05-20T03:07:08;98870.09;;;12.20;100.00
53270;BME280;39159;45.634;9.420;2023-05-20T03:09:33;98864.97;;;12.19;100.00
53270;BME280;39159;45.634;9.420;2023-05-20T03:11:59;98863.50;;;12.21;100.00
53270;BME280;39159;45.634;9.420;2023-05-20T03:14:24;98864.00;;;12.23;100.00
53270;BME280;39159;45.634;9.420;2023-05-20T03:16:50;98873.81;;;12.24;100.00
53270;BME280;39159;45.634;9.420;2023-05-20T03:19:15;98877.81;;;12.27;100.00
53270;BME280;39159;45.634;9.420;2023-05-20T03:21:41;98877.19;;;12.21;100.00
53270;BME280;39159;45.634;9.420;2023-05-20T03:24:08;98878.78;;;12.22;100.00
53270;BME280;39159;45.634;9.420;2023-05-20T03:26:34;98868.50;;;12.19;100.00
53270;BME280;39159;45.634;9.420;2023-05-20T03:29:02;98863.34;;;12.18;100.00
53270;BME280;39159;45.634;9.420;2023-05-20T03:31:27;98860.28;;;12.19;100.00
53270;BME280;39159;45.634;9.420;2023-05-20T03:33:53;98862.38;;;12.14;100.00
53270;BME280;39159;45.634;9.420;2023-05-20T03:36:19;98870.25;;;12.15;100.00
53270;BME280;39159;45.634;9.420;2023-05-20T03:38:44;98867.03;;;12.13;100.00
53270;BME280;39159;45.634;9.420;2023-05-20T03:41:10;98865.94;;;12.14;100.00
53270;BME280;39159;45.634;9.420;2023-05-20T03:43:35;98864.31;;;12.13;100.00
53270;BME280;39159;45.634;9.420;2023-05-20T03:46:01;98855.28;;;12.13;100.00
53270;BME280;39159;45.634;9.420;2023-05-20T03:48:26;98856.09;;;12.13;100.00
53270;BME280;39159;45.634;9.420;2023-05-20T03:50:51;98854.50;;;12.12;100.00
53270;BME280;39159;45.634;9.420;2023-05-20T03:53:17;98862.38;;;12.14;100.00
53270;BME280;39159;45.634;9.420;2023-05-20T03:55:44;98853.69;;;12.12;100.00
53270;BME280;39159;45.634;9.420;2023-05-20T03:58:10;98844.66;;;12.11;100.00
53270;BME280;39159;45.634;9.420;2023-05-20T04:00:37;98845.63;;;12.07;100.00
53270;BME280;39159;45.634;9.420;2023-05-20T04:03:04;98854.63;;;12.07;100.00
53270;BME280;39159;45.634;9.420;2023-05-20T04:05:30;98856.09;;;12.05;100.00
53270;BME280;39159;45.634;9.420;2023-05-20T04:07:55;98849.66;;;12.09;100.00
53270;BME280;39159;45.634;9.420;2023-05-20T04:10:21;98844.19;;;12.09;100.00
53270;BME280;39159;45.634;9.420;2023-05-20T04:12:47;98846.44;;;12.07;100.00
53270;BME280;39159;45.634;9.420;2023-05-20T04:15:12;98849.81;;;12.04;100.00
53270;BME280;39159;45.634;9.420;2023-05-20T04:17:39;98848.53;;;12.01;100.00
53270;BME280;39159;45.634;9.420;2023-05-20T04:20:06;98847.72;;;12.01;100.00
53270;BME280;39159;45.634;9.420;2023-05-20T04:22:33;98849.31;;;12.02;100.00
53270;BME280;39159;45.634;9.420;2023-05-20T04:24:58;98846.59;;;12.02;100.00
53270;BME280;39159;45.634;9.420;2023-05-20T04:27:24;98841.59;;;12.04;100.00
53270;BME280;39159;45.634;9.420;2023-05-20T04:29:50;98837.09;;;12.08;100.00
53270;BME280;39159;45.634;9.420;2023-05-20T04:32:17;98832.13;;;12.10;100.00
53270;BME280;39159;45.634;9.420;2023-05-20T04:34:43;98841.13;;;12.11;100.00
53270;BME280;39159;45.634;9.420;2023-05-20T04:37:10;98841.44;;;12.09;100.00
53270;BME280;39159;45.634;9.420;2023-05-20T04:39:35;98842.75;;;12.12;100.00
53270;BME280;39159;45.634;9.420;2023-05-20T04:42:02;98834.22;;;12.13;100.00
53270;BME280;39159;45.634;9.420;2023-05-20T04:44:27;98829.38;;;12.10;100.00
53270;BME280;39159;45.634;9.420;2023-05-20T04:46:54;98815.53;;;12.07;100.00
53270;BME280;39159;45.634;9.420;2023-05-20T04:49:20;98814.25;;;12.21;100.00
53270;BME280;39159;45.634;9.420;2023-05-20T04:51:45;98814.56;;;12.20;100.00
53270;BME280;39159;45.634;9.420;2023-05-20T04:54:14;98815.38;;;12.20;100.00
53270;BME280;39159;45.634;9.420;2023-05-20T04:56:42;98812.63;;;12.20;100.00
53270;BME280;39159;45.634;9.420;2023-05-20T04:59:07;98818.44;;;12.19;100.00
53270;BME280;39159;45.634;9.420;2023-05-20T05:01:37;98816.50;;;12.19;100.00
53270;BME280;39159;45.634;9.420;2023-05-20T05:04:03;98814.91;;;12.18;100.00
53270;BME280;39159;45.634;9.420;2023-05-20T05:06:28;98817.97;;;12.17;100.00
53270;BME280;39159;45.634;9.420;2023-05-20T05:08:54;98817.16;;;12.16;100.00
53270;BME280;39159;45.634;9.420;2023-05-20T05:11:19;98812.50;;;12.17;100.00
53270;BME280;39159;45.634;9.420;2023-05-20T05:13:45;98814.44;;;12.16;100.00
53270;BME280;39159;45.634;9.420;2023-05-20T05:16:11;98810.25;;;12.19;100.00
53270;BME280;39159;45.634;9.420;2023-05-20T05:18:37;98807.50;;;12.19;100.00
53270;BME280;39159;45.634;9.420;2023-05-20T05:21:04;98802.53;;;12.21;100.00
53270;BME280;39159;45.634;9.420;2023-05-20T05:23:30;98806.53;;;12.23;100.00
53270;BME280;39159;45.634;9.420;2023-05-20T05:25:56;98796.41;;;12.24;100.00
53270;BME280;39159;45.634;9.420;2023-05-20T05:28:22;98792.88;;;12.23;100.00
53270;BME280;39159;45.634;9.420;2023-05-20T05:30:48;98787.22;;;12.29;100.00
53270;BME280;39159;45.634;9.420;2023-05-20T05:33:16;98790.75;;;12.38;100.00
53270;BME280;39159;45.634;9.420;2023-05-20T05:35:42;98792.03;;;12.40;100.00
53270;BME280;39159;45.634;9.420;2023-05-20T05:38:08;98785.59;;;12.45;100.00
53270;BME280;39159;45.634;9.420;2023-05-20T05:40:34;98785.59;;;12.45;100.00
53270;BME280;39159;45.634;9.420;2023-05-20T05:42:59;98781.56;;;12.51;100.00
53270;BME280;39159;45.634;9.420;2023-05-20T05:45:25;98775.28;;;12.51;100.00
53270;BME280;39159;45.634;9.420;2023-05-20T05:47:50;98767.53;;;12.53;100.00
53270;BME280;39159;45.634;9.420;2023-05-20T05:50:16;98774.78;;;12.49;100.00
53270;BME280;39159;45.634;9.420;2023-05-20T05:52:41;98764.34;;;12.42;100.00
53270;BME280;39159;45.634;9.420;2023-05-20T05:55:08;98771.56;;;12.47;100.00
53270;BME280;39159;45.634;9.420;2023-05-20T05:57:34;98764.81;;;12.53;100.00
53270;BME280;39159;45.634;9.420;2023-05-20T05:59:59;98776.25;;;12.55;100.00
53270;BME280;39159;45.634;9.420;2023-05-20T06:02:25;98772.03;;;12.57;100.00
53270;BME280;39159;45.634;9.420;2023-05-20T06:04:50;98772.03;;;12.57;100.00
53270;BME280;39159;45.634;9.420;2023-05-20T06:07:16;98778.97;;;12.63;100.00
53270;BME280;39159;45.634;9.420;2023-05-20T06:09:42;98774.09;;;12.69;100.00
53270;BME280;39159;45.634;9.420;2023-05-20T06:12:07;98778.94;;;12.72;100.00
53270;BME280;39159;45.634;9.420;2023-05-20T06:14:33;98778.16;;;12.72;100.00
53270;BME280;39159;45.634;9.420;2023-05-20T06:16:58;98777.78;;;12.82;100.00
53270;BME280;39159;45.634;9.420;2023-05-20T06:19:24;98775.34;;;12.89;100.00
53270;BME280;39159;45.634;9.420;2023-05-20T06:21:50;98776.16;;;12.90;100.00
53270;BME280;39159;45.634;9.420;2023-05-20T06:24:15;98772.75;;;12.93;100.00
53270;BME280;39159;45.634;9.420;2023-05-20T06:26:41;98774.50;;;12.97;100.00
53270;BME280;39159;45.634;9.420;2023-05-20T06:29:07;98777.25;;;12.97;100.00
53270;BME280;39159;45.634;9.420;2023-05-20T06:31:32;98776.41;;;13.05;100.00
53270;BME280;39159;45.634;9.420;2023-05-20T06:33:58;98772.03;;;13.13;100.00
53270;BME280;39159;45.634;9.420;2023-05-20T06:36:23;98779.25;;;13.18;100.00
53270;BME280;39159;45.634;9.420;2023-05-20T06:38:49;98778.44;;;13.17;100.00
53270;BME280;39159;45.634;9.420;2023-05-20T06:41:14;98776.50;;;13.18;100.00
53270;BME280;39159;45.634;9.420;2023-05-20T06:43:40;98774.72;;;13.22;100.00
53270;BME280;39159;45.634;9.420;2023-05-20T06:46:05;98777.44;;;13.31;100.00
53270;BME280;39159;45.634;9.420;2023-05-20T06:48:31;98778.25;;;13.31;100.00
53270;BME280;39159;45.634;9.420;2023-05-20T06:50:56;98772.59;;;13.36;100.00
53270;BME280;39159;45.634;9.420;2023-05-20T06:53:22;98775.47;;;13.40;100.00
53270;BME280;39159;45.634;9.420;2023-05-20T06:55:47;98783.16;;;13.46;100.00
53270;BME280;39159;45.634;9.420;2023-05-20T06:58:13;98775.41;;;13.48;100.00
53270;BME280;39159;45.634;9.420;2023-05-20T07:00:38;98780.31;;;13.43;100.00
53270;BME280;39159;45.634;9.420;2023-05-20T07:03:04;98784.16;;;13.42;100.00
53270;BME280;39159;45.634;9.420;2023-05-20T07:05:29;98784.84;;;13.39;100.00
53270;BME280;39159;45.634;9.420;2023-05-20T07:07:59;98786.75;;;13.38;100.00
53270;BME280;39159;45.634;9.420;2023-05-20T07:10:24;98789.50;;;13.38;100.00
53270;BME280;39159;45.634;9.420;2023-05-20T07:12:50;98789.97;;;13.40;100.00
53270;BME280;39159;45.634;9.420;2023-05-20T07:15:15;98789.84;;;13.37;100.00
53270;BME280;39159;45.634;9.420;2023-05-20T07:17:42;98791.78;;;13.36;100.00
53270;BME280;39159;45.634;9.420;2023-05-20T07:20:07;98797.28;;;13.36;100.00
53270;BME280;39159;45.634;9.420;2023-05-20T07:22:33;98789.03;;;13.36;100.00
53270;BME280;39159;45.634;9.420;2023-05-20T07:25:01;98796.44;;;13.36;100.00
53270;BME280;39159;45.634;9.420;2023-05-20T07:27:27;98789.22;;;13.31;100.00
53270;BME280;39159;45.634;9.420;2023-05-20T07:29:53;98786.00;;;13.29;100.00
53270;BME280;39159;45.634;9.420;2023-05-20T07:32:19;98781.16;;;13.26;100.00
53270;BME280;39159;45.634;9.420;2023-05-20T07:34:44;98779.09;;;13.23;100.00
53270;BME280;39159;45.634;9.420;2023-05-20T07:37:10;98784.69;;;13.26;100.00
53270;BME280;39159;45.634;9.420;2023-05-20T07:39:37;98783.41;;;13.24;100.00
53270;BME280;39159;45.634;9.420;2023-05-20T07:42:02;98772.94;;;13.26;100.00
53270;BME280;39159;45.634;9.420;2023-05-20T07:44:28;98772.63;;;13.27;100.00
53270;BME280;39159;45.634;9.420;2023-05-20T07:46:54;98773.91;;;13.30;100.00
53270;BME280;39159;45.634;9.420;2023-05-20T07:49:23;98773.13;;;13.30;100.00
53270;BME280;39159;45.634;9.420;2023-05-20T07:51:48;98771.19;;;13.30;100.00
53270;BME280;39159;45.634;9.420;2023-05-20T07:54:14;98775.50;;;13.31;100.00
53270;BME280;39159;45.634;9.420;2023-05-20T07:56:40;98772.13;;;13.34;100.00
53270;BME280;39159;45.634;9.420;2023-05-20T07:59:05;98771.31;;;13.34;100.00
53270;BME280;39159;45.634;9.420;2023-05-20T08:01:31;98765.34;;;13.32;100.00
53270;BME280;39159;45.634;9.420;2023-05-20T08:03:57;98769.38;;;13.34;100.00
53270;BME280;39159;45.634;9.420;2023-05-20T08:06:22;98774.03;;;13.34;100.00
53270;BME280;39159;45.634;9.420;2023-05-20T08:08:51;98766.97;;;13.33;100.00
53270;BME280;39159;45.634;9.420;2023-05-20T08:11:18;98779.88;;;13.32;100.00
53270;BME280;39159;45.634;9.420;2023-05-20T08:13:44;98769.22;;;13.31;100.00
53270;BME280;39159;45.634;9.420;2023-05-20T08:16:10;98774.41;;;13.32;100.00
53270;BME280;39159;45.634;9.420;2023-05-20T08:18:36;98775.34;;;13.36;100.00
53270;BME280;39159;45.634;9.420;2023-05-20T08:21:03;98776.94;;;13.37;100.00
53270;BME280;39159;45.634;9.420;2023-05-20T08:23:29;98772.25;;;13.38;100.00
53270;BME280;39159;45.634;9.420;2023-05-20T08:25:54;98770.19;;;13.35;100.00
53270;BME280;39159;45.634;9.420;2023-05-20T08:28:21;98770.19;;;13.35;100.00
53270;BME280;39159;45.634;9.420;2023-05-20T08:30:47;98773.56;;;13.32;100.00
53270;BME280;39159;45.634;9.420;2023-05-20T08:33:13;98773.25;;;13.33;100.00
53270;BME280;39159;45.634;9.420;2023-05-20T08:35:39;98774.19;;;13.37;100.00
53270;BME280;39159;45.634;9.420;2023-05-20T08:38:05;98778.38;;;13.43;100.00
53270;BME280;39159;45.634;9.420;2023-05-20T08:40:33;98780.59;;;13.50;100.00
53270;BME280;39159;45.634;9.420;2023-05-20T08:43:02;98772.16;;;13.55;100.00
53270;BME280;39159;45.634;9.420;2023-05-20T08:45:31;98772.94;;;13.56;100.00
53270;BME280;39159;45.634;9.420;2023-05-20T08:47:57;98782.31;;;13.55;100.00
53270;BME280;39159;45.634;9.420;2023-05-20T08:50:23;98775.22;;;13.54;100.00
53270;BME280;39159;45.634;9.420;2023-05-20T08:52:48;98774.56;;;13.57;100.00
53270;BME280;39159;45.634;9.420;2023-05-20T08:55:17;98778.25;;;13.61;100.00
53270;BME280;39159;45.634;9.420;2023-05-20T08:57:50;98783.06;;;13.64;100.00
53270;BME280;39159;45.634;9.420;2023-05-20T09:00:16;98794.66;;;13.70;100.00
53270;BME280;39159;45.634;9.420;2023-05-20T09:02:44;98794.66;;;13.70;100.00
53270;BME280;39159;45.634;9.420;2023-05-20T09:05:10;98797.06;;;13.71;100.00
53270;BME280;39159;45.634;9.420;2023-05-20T09:07:36;98805.75;;;13.73;100.00
53270;BME280;39159;45.634;9.420;2023-05-20T09:10:02;98810.59;;;13.76;100.00
53270;BME280;39159;45.634;9.420;2023-05-20T09:12:28;98812.19;;;13.77;100.00
53270;BME280;39159;45.634;9.420;2023-05-20T09:14:54;98825.69;;;13.82;100.00
53270;BME280;39159;45.634;9.420;2023-05-20T09:17:23;98819.09;;;13.83;100.00
53270;BME280;39159;45.634;9.420;2023-05-20T09:19:49;98829.88;;;13.88;100.00
53270;BME280;39159;45.634;9.420;2023-05-20T09:22:26;98822.56;;;13.93;100.00
53270;BME280;39159;45.634;9.420;2023-05-20T09:24:53;98827.38;;;13.96;100.00
53270;BME280;39159;45.634;9.420;2023-05-20T09:27:19;98828.88;;;13.93;100.00
53270;BME280;39159;45.634;9.420;2023-05-20T09:29:48;98825.91;;;13.98;100.00
53270;BME280;39159;45.634;9.420;2023-05-20T09:32:16;98829.59;;;14.02;100.00
53270;BME280;39159;45.634;9.420;2023-05-20T09:34:41;98827.47;;;14.08;100.00
53270;BME280;39159;45.634;9.420;2023-05-20T09:37:08;98836.19;;;14.10;100.00
53270;BME280;39159;45.634;9.420;2023-05-20T09:39:54;98836.44;;;14.17;100.00
53270;BME280;39159;45.634;9.420;2023-05-20T09:42:33;98828.63;;;14.28;100.00
53270;BME280;39159;45.634;9.420;2023-05-20T09:45:01;98830.81;;;14.35;100.00
53270;BME280;39159;45.634;9.420;2023-05-20T09:47:28;98830.06;;;14.46;100.00
53270;BME280;39159;45.634;9.420;2023-05-20T09:49:55;98827.00;;;14.48;100.00
53270;BME280;39159;45.634;9.420;2023-05-20T09:52:21;98833.22;;;14.57;100.00
53270;BME280;39159;45.634;9.420;2023-05-20T09:54:47;98836.78;;;14.58;100.00
53270;BME280;39159;45.634;9.420;2023-05-20T09:57:13;98841.63;;;14.61;100.00
53270;BME280;39159;45.634;9.420;2023-05-20T09:59:39;98840.69;;;14.57;100.00
53270;BME280;39159;45.634;9.420;2023-05-20T10:02:05;98836.78;;;14.58;100.00
53270;BME280;39159;45.634;9.420;2023-05-20T10:04:33;98844.25;;;14.69;100.00
53270;BME280;39159;45.634;9.420;2023-05-20T10:07:19;98848.06;;;14.77;100.00
53270;BME280;39159;45.634;9.420;2023-05-20T10:10:04;98851.28;;;14.79;100.00
53270;BME280;39159;45.634;9.420;2023-05-20T10:20:56;98848.22;;;14.93;100.00
53270;BME280;39159;45.634;9.420;2023-05-20T10:23:28;98853.50;;;14.98;100.00
53270;BME280;39159;45.634;9.420;2023-05-20T10:25:56;98839.75;;;14.98;100.00
53270;BME280;39159;45.634;9.420;2023-05-20T10:28:47;98841.06;;;15.01;100.00
53270;BME280;39159;45.634;9.420;2023-05-20T10:31:22;98836.81;;;15.03;100.00
53270;BME280;39159;45.634;9.420;2023-05-20T10:33:51;98839.91;;;15.02;100.00
53270;BME280;39159;45.634;9.420;2023-05-20T10:36:27;98835.78;;;15.08;100.00
53270;BME280;39159;45.634;9.420;2023-05-20T10:38:56;98839.25;;;15.17;100.00
53270;BME280;39159;45.634;9.420;2023-05-20T10:41:29;98836.72;;;15.24;100.00
53270;BME280;39159;45.634;9.420;2023-05-20T10:44:01;98835.69;;;15.29;100.00
53270;BME280;39159;45.634;9.420;2023-05-20T10:46:28;98834.22;;;15.31;100.00
53270;BME280;39159;45.634;9.420;2023-05-20T10:48:54;98829.53;;;15.32;100.00
53270;BME280;39159;45.634;9.420;2023-05-20T10:51:20;98829.06;;;15.30;100.00
53270;BME280;39159;45.634;9.420;2023-05-20T10:53:46;98821.50;;;15.27;100.00
53270;BME280;39159;45.634;9.420;2023-05-20T10:56:22;98818.53;;;15.32;100.00
53270;BME280;39159;45.634;9.420;2023-05-20T10:58:49;98824.34;;;15.43;100.00
53270;BME280;39159;45.634;9.420;2023-05-20T11:01:16;98815.22;;;15.51;100.00
53270;BME280;39159;45.634;9.420;2023-05-20T11:03:44;98813.97;;;15.61;100.00
53270;BME280;39159;45.634;9.420;2023-05-20T11:06:25;98814.06;;;15.64;100.00
53270;BME280;39159;45.634;9.420;2023-05-20T11:08:51;98802.38;;;15.80;100.00
53270;BME280;39159;45.634;9.420;2023-05-20T11:11:17;98790.19;;;15.93;100.00
53270;BME280;39159;45.634;9.420;2023-05-20T11:13:42;98799.69;;;16.08;100.00
53270;BME280;39159;45.634;9.420;2023-05-20T11:16:08;98796.44;;;16.18;100.00
53270;BME280;39159;45.634;9.420;2023-05-20T11:18:33;98799.63;;;16.32;100.00
53270;BME280;39159;45.634;9.420;2023-05-20T11:21:00;98800.22;;;16.26;100.00
53270;BME280;39159;45.634;9.420;2023-05-20T11:23:27;98799.41;;;16.25;100.00
53270;BME280;39159;45.634;9.420;2023-05-20T11:25:54;98792.75;;;16.26;100.00
53270;BME280;39159;45.634;9.420;2023-05-20T11:28:20;98785.53;;;16.22;100.00
53270;BME280;39159;45.634;9.420;2023-05-20T11:30:47;98793.66;;;16.30;100.00
53270;BME280;39159;45.634;9.420;2023-05-20T11:33:14;98783.13;;;16.20;100.00
53270;BME280;39159;45.634;9.420;2023-05-20T11:35:51;98784.38;;;16.23;100.00
53270;BME280;39159;45.634;9.420;2023-05-20T11:38:18;98788.53;;;16.16;100.00
53270;BME280;39159;45.634;9.420;2023-05-20T11:40:51;98784.50;;;16.14;100.00
53270;BME280;39159;45.634;9.420;2023-05-20T11:43:18;98788.63;;;16.20;100.00
53270;BME280;39159;45.634;9.420;2023-05-20T11:45:45;98779.69;;;16.23;100.00
53270;BME280;39159;45.634;9.420;2023-05-20T11:48:12;98780.81;;;16.22;100.00
53270;BME280;39159;45.634;9.420;2023-05-20T11:50:44;98788.47;;;16.29;100.00
53270;BME280;39159;45.634;9.420;2023-05-20T11:53:15;98794.78;;;16.29;100.00
53270;BME280;39159;45.634;9.420;2023-05-20T11:58:19;98786.00;;;16.11;100.00
53270;BME280;39159;45.634;9.420;2023-05-20T12:00:45;98790.53;;;16.04;100.00
53270;BME280;39159;45.634;9.420;2023-05-20T12:03:11;98789.53;;;15.84;100.00
53270;BME280;39159;45.634;9.420;2023-05-20T12:05:37;98797.78;;;15.71;100.00
53270;BME280;39159;45.634;9.420;2023-05-20T12:08:04;98796.06;;;15.67;100.00
53270;BME280;39159;45.634;9.420;2023-05-20T12:10:29;98799.84;;;15.62;100.00
53270;BME280;39159;45.634;9.420;2023-05-20T12:12:56;98791.50;;;15.59;100.00
53270;BME280;39159;45.634;9.420;2023-05-20T12:15:21;98788.28;;;15.57;100.00
53270;BME280;39159;45.634;9.420;2023-05-20T12:17:48;98799.97;;;15.53;100.00
53270;BME280;39159;45.634;9.420;2023-05-20T12:20:16;98797.66;;;15.55;100.00
53270;BME280;39159;45.634;9.420;2023-05-20T12:22:44;98796.53;;;15.57;100.00
53270;BME280;39159;45.634;9.420;2023-05-20T12:25:12;98791.38;;;15.55;100.00
53270;BME280;39159;45.634;9.420;2023-05-20T12:27:39;98786.00;;;15.59;100.00
53270;BME280;39159;45.634;9.420;2023-05-20T12:30:06;98782.53;;;15.62;100.00
53270;BME280;39159;45.634;9.420;2023-05-20T12:32:32;98777.84;;;15.62;100.00
53270;BME280;39159;45.634;9.420;2023-05-20T12:34:57;98783.91;;;15.55;100.00
53270;BME280;39159;45.634;9.420;2023-05-20T12:37:23;98778.41;;;15.55;100.00
53270;BME280;39159;45.634;9.420;2023-05-20T12:39:48;98772.81;;;15.52;100.00
53270;BME280;39159;45.634;9.420;2023-05-20T12:42:14;98774.06;;;15.42;100.00
53270;BME280;39159;45.634;9.420;2023-05-20T12:44:40;98769.03;;;15.44;100.00
53270;BME280;39159;45.634;9.420;2023-05-20T12:47:05;98760.78;;;15.44;100.00
53270;BME280;39159;45.634;9.420;2023-05-20T12:49:31;98765.69;;;15.51;100.00
53270;BME280;39159;45.634;9.420;2023-05-20T12:51:56;98762.72;;;15.56;100.00
53270;BME280;39159;45.634;9.420;2023-05-20T12:54:21;98758.03;;;15.57;100.00
53270;BME280;39159;45.634;9.420;2023-05-20T12:56:47;98757.56;;;15.42;100.00
53270;BME280;39159;45.634;9.420;2023-05-20T12:59:13;98761.81;;;15.40;100.00